sensor_id;sensor_type;location;lat;lon;timestamp;P1;durP1;ratioP1;P2;durP2;ratioP2
57301;SDS011;43149;50.974;18.224;2023-10-13T00:03:30;14.60;;;7.90;;
57301;SDS011;43149;50.974;18.224;2023-10-13T00:13:17;12.50;;;8.90;;
57301;SDS011;43149;50.974;18.224;2023-10-13T00:23:22;13.60;;;9.90;;
57301;SDS011;43149;50.974;18.224;2023-10-13T00:33:38;6.70;;;4.90;;
57301;SDS011;43149;50.974;18.224;2023-10-13T00:43:44;8.00;;;6.10;;
57301;SDS011;43149;50.974;18.224;2023-10-13T00:54:01;8.50;;;7.60;;
57301;SDS011;43149;50.974;18.224;2023-10-13T01:03:59;14.40;;;7.90;;
57301;SDS011;43149;50.974;18.224;2023-10-13T01:14:14;10.10;;;7.10;;
57301;SDS011;43149;50.974;18.224;2023-10-13T01:24:06;5.50;;;4.30;;
57301;SDS011;43149;50.974;18.224;2023-10-13T01:34:18;6.90;;;5.20;;
57301;SDS011;43149;50.974;18.224;2023-10-13T01:44:08;22.80;;;7.90;;
57301;SDS011;43149;50.974;18.224;2023-10-13T01:53:59;10.60;;;5.00;;
57301;SDS011;43149;50.974;18.224;2023-10-13T02:03:56;7.00;;;4.70;;
57301;SDS011;43149;50.974;18.224;2023-10-13T02:13:56;21.50;;;11.20;;
57301;SDS011;43149;50.974;18.224;2023-10-13T02:23:45;20.10;;;9.40;;
57301;SDS011;43149;50.974;18.224;2023-10-13T02:33:59;8.30;;;5.20;;
57301;SDS011;43149;50.974;18.224;2023-10-13T02:44:02;1.80;;;1.70;;
57301;SDS011;43149;50.974;18.224;2023-10-13T02:54:01;11.90;;;6.70;;
57301;SDS011;43149;50.974;18.224;2023-10-13T03:04:49;10.30;;;6.80;;
57301;SDS011;43149;50.974;18.224;2023-10-13T03:14:44;20.20;;;10.10;;
57301;SDS011;43149;50.974;18.224;2023-10-13T03:24:38;22.50;;;10.80;;
57301;SDS011;43149;50.974;18.224;2023-10-13T03:34:38;7.90;;;6.10;;
57301;SDS011;43149;50.974;18.224;2023-10-13T03:44:57;7.70;;;6.50;;
57301;SDS011;43149;50.974;18.224;2023-10-13T03:55:04;16.50;;;9.60;;
57301;SDS011;43149;50.974;18.224;2023-10-13T04:05:02;25.30;;;8.80;;
57301;SDS011;43149;50.974;18.224;2023-10-13T04:15:28;17.80;;;8.60;;
57301;SDS011;43149;50.974;18.224;2023-10-13T04:25:44;14.80;;;7.50;;
57301;SDS011;43149;50.974;18.224;2023-10-13T04:36:13;12.40;;;8.40;;
57301;SDS011;43149;50.974;18.224;2023-10-13T04:46:48;14.10;;;9.30;;
57301;SDS011;43149;50.974;18.224;2023-10-13T04:57:18;21.80;;;10.80;;
57301;SDS011;43149;50.974;18.224;2023-10-13T05:08:11;15.80;;;8.80;;
57301;SDS011;43149;50.974;18.224;2023-10-13T05:19:08;12.70;;;9.60;;
57301;SDS011;43149;50.974;18.224;2023-10-13T05:30:06;21.30;;;8.70;;
57301;SDS011;43149;50.974;18.224;2023-10-13T05:41:05;32.90;;;13.40;;
57301;SDS011;43149;50.974;18.224;2023-10-13T05:51:54;10.70;;;7.10;;
57301;SDS011;43149;50.974;18.224;2023-10-13T06:02:50;23.30;;;8.50;;
57301;SDS011;43149;50.974;18.224;2023-10-13T06:13:48;10.50;;;5.40;;
57301;SDS011;43149;50.974;18.224;2023-10-13T06:24:46;1.90;;;1.30;;
57301;SDS011;43149;50.974;18.224;2023-10-13T06:35:08;21.60;;;8.60;;
57301;SDS011;43149;50.974;18.224;2023-10-13T06:45:38;10.50;;;8.40;;
57301;SDS011;43149;50.974;18.224;2023-10-13T06:55:36;4.50;;;4.10;;
57301;SDS011;43149;50.974;18.224;2023-10-13T07:05:45;19.00;;;12.20;;
57301;SDS011;43149;50.974;18.224;2023-10-13T07:16:13;21.00;;;12.50;;
57301;SDS011;43149;50.974;18.224;2023-10-13T07:26:37;23.10;;;8.30;;
57301;SDS011;43149;50.974;18.224;2023-10-13T07:36:42;15.40;;;9.70;;
57301;SDS011;43149;50.974;18.224;2023-10-13T07:46:54;34.50;;;12.30;;
57301;SDS011;43149;50.974;18.224;2023-10-13T07:57:33;23.40;;;13.30;;
57301;SDS011;43149;50.974;18.224;2023-10-13T08:08:19;23.80;;;13.70;;
57301;SDS011;43149;50.974;18.224;2023-10-13T08:26:19;19.60;;;12.70;;
57301;SDS011;43149;50.974;18.224;2023-10-13T08:37:05;31.70;;;12.80;;
57301;SDS011;43149;50.974;18.224;2023-10-13T08:47:49;23.90;;;11.80;;
57301;SDS011;43149;50.974;18.224;2023-10-13T08:58:33;32.30;;;11.00;;
57301;SDS011;43149;50.974;18.224;2023-10-13T09:09:49;12.80;;;8.80;;
57301;SDS011;43149;50.974;18.224;2023-10-13T09:20:59;20.50;;;11.00;;
57301;SDS011;43149;50.974;18.224;2023-10-13T09:31:06;17.70;;;9.80;;
57301;SDS011;43149;50.974;18.224;2023-10-13T09:41:05;34.80;;;10.10;;
57301;SDS011;43149;50.974;18.224;2023-10-13T09:51:13;11.30;;;10.00;;
57301;SDS011;43149;50.974;18.224;2023-10-13T10:01:27;15.50;;;9.20;;
57301;SDS011;43149;50.974;18.224;2023-10-13T10:22:24;8.60;;;5.40;;
57301;SDS011;43149;50.974;18.224;2023-10-13T10:32:55;8.20;;;4.70;;
57301;SDS011;43149;50.974;18.224;2023-10-13T10:43:38;5.90;;;5.40;;
57301;SDS011;43149;50.974;18.224;2023-10-13T10:53:33;7.10;;;5.00;;
57301;SDS011;43149;50.974;18.224;2023-10-13T11:14:23;5.00;;;4.20;;
57301;SDS011;43149;50.974;18.224;2023-10-13T11:24:58;3.80;;;3.40;;
57301;SDS011;43149;50.974;18.224;2023-10-13T11:35:08;18.70;;;4.00;;
57301;SDS011;43149;50.974;18.224;2023-10-13T11:45:49;4.10;;;3.10;;
57301;SDS011;43149;50.974;18.224;2023-10-13T11:55:59;2.00;;;1.40;;
57301;SDS011;43149;50.974;18.224;2023-10-13T12:06:08;3.30;;;3.10;;
57301;SDS011;43149;50.974;18.224;2023-10-13T12:16:23;3.30;;;3.10;;
57301;SDS011;43149;50.974;18.224;2023-10-13T12:26:19;3.50;;;3.20;;
57301;SDS011;43149;50.974;18.224;2023-10-13T12:36:13;2.70;;;1.70;;
57301;SDS011;43149;50.974;18.224;2023-10-13T12:55:00;3.30;;;1.10;;
57301;SDS011;43149;50.974;18.224;2023-10-13T13:04:53;2.60;;;2.40;;
57301;SDS011;43149;50.974;18.224;2023-10-13T13:15:06;4.50;;;4.10;;
57301;SDS011;43149;50.974;18.224;2023-10-13T13:25:20;1.90;;;1.80;;
57301;SDS011;43149;50.974;18.224;2023-10-13T13:35:29;3.90;;;1.70;;
57301;SDS011;43149;50.974;18.224;2023-10-13T13:45:30;2.30;;;2.20;;
57301;SDS011;43149;50.974;18.224;2023-10-13T13:55:24;2.30;;;2.10;;
57301;SDS011;43149;50.974;18.224;2023-10-13T14:05:41;3.50;;;3.20;;
57301;SDS011;43149;50.974;18.224;2023-10-13T14:16:11;2.00;;;1.90;;
57301;SDS011;43149;50.974;18.224;2023-10-13T14:26:19;9.90;;;3.60;;
57301;SDS011;43149;50.974;18.224;2023-10-13T14:36:27;2.60;;;2.40;;
57301;SDS011;43149;50.974;18.224;2023-10-13T14:46:22;2.60;;;2.40;;
57301;SDS011;43149;50.974;18.224;2023-10-13T14:56:11;8.00;;;2.80;;
57301;SDS011;43149;50.974;18.224;2023-10-13T15:06:07;4.00;;;3.70;;
57301;SDS011;43149;50.974;18.224;2023-10-13T15:16:14;4.00;;;3.00;;
57301;SDS011;43149;50.974;18.224;2023-10-13T15:26:13;3.00;;;1.60;;
57301;SDS011;43149;50.974;18.224;2023-10-13T15:36:43;6.80;;;1.60;;
57301;SDS011;43149;50.974;18.224;2023-10-13T15:46:35;3.00;;;2.80;;
57301;SDS011;43149;50.974;18.224;2023-10-13T15:56:25;3.60;;;2.10;;
57301;SDS011;43149;50.974;18.224;2023-10-13T16:06:15;2.90;;;2.70;;
57301;SDS011;43149;50.974;18.224;2023-10-13T16:16:06;1.60;;;1.30;;
57301;SDS011;43149;50.974;18.224;2023-10-13T16:26:09;3.00;;;2.70;;
57301;SDS011;43149;50.974;18.224;2023-10-13T16:35:55;7.10;;;4.00;;
57301;SDS011;43149;50.974;18.224;2023-10-13T16:45:45;3.70;;;3.30;;
57301;SDS011;43149;50.974;18.224;2023-10-13T16:55:40;4.80;;;4.40;;
57301;SDS011;43149;50.974;18.224;2023-10-13T17:05:43;12.60;;;5.60;;
57301;SDS011;43149;50.974;18.224;2023-10-13T17:15:33;6.50;;;6.00;;
57301;SDS011;43149;50.974;18.224;2023-10-13T17:25:46;7.80;;;6.00;;
57301;SDS011;43149;50.974;18.224;2023-10-13T17:35:39;6.20;;;5.60;;
57301;SDS011;43149;50.974;18.224;2023-10-13T17:45:33;9.40;;;6.90;;
57301;SDS011;43149;50.974;18.224;2023-10-13T17:55:23;11.10;;;6.60;;
57301;SDS011;43149;50.974;18.224;2023-10-13T18:12:38;10.30;;;7.50;;
57301;SDS011;43149;50.974;18.224;2023-10-13T18:22:38;12.00;;;5.90;;
57301;SDS011;43149;50.974;18.224;2023-10-13T18:27:43;24.40;;;10.60;;
57301;SDS011;43149;50.974;18.224;2023-10-13T18:37:37;10.60;;;6.70;;
57301;SDS011;43149;50.974;18.224;2023-10-13T18:47:23;24.10;;;11.70;;
57301;SDS011;43149;50.974;18.224;2023-10-13T18:57:09;8.60;;;6.10;;
57301;SDS011;43149;50.974;18.224;2023-10-13T19:07:00;22.30;;;8.70;;
57301;SDS011;43149;50.974;18.224;2023-10-13T19:16:49;24.80;;;9.10;;
57301;SDS011;43149;50.974;18.224;2023-10-13T19:26:45;18.70;;;7.40;;
57301;SDS011;43149;50.974;18.224;2023-10-13T19:36:31;12.90;;;6.90;;
57301;SDS011;43149;50.974;18.224;2023-10-13T19:46:23;13.10;;;7.10;;
57301;SDS011;43149;50.974;18.224;2023-10-13T19:56:12;20.80;;;9.20;;
57301;SDS011;43149;50.974;18.224;2023-10-13T20:06:07;22.10;;;10.20;;
57301;SDS011;43149;50.974;18.224;2023-10-13T20:15:56;25.70;;;9.30;;
57301;SDS011;43149;50.974;18.224;2023-10-13T20:25:41;17.70;;;5.20;;
57301;SDS011;43149;50.974;18.224;2023-10-13T20:35:35;8.30;;;6.80;;
57301;SDS011;43149;50.974;18.224;2023-10-13T20:45:28;2.50;;;2.30;;
57301;SDS011;43149;50.974;18.224;2023-10-13T20:55:17;15.30;;;5.90;;
57301;SDS011;43149;50.974;18.224;2023-10-13T21:05:13;8.70;;;6.90;;
57301;SDS011;43149;50.974;18.224;2023-10-13T21:15:06;16.90;;;7.30;;
57301;SDS011;43149;50.974;18.224;2023-10-13T21:25:13;19.30;;;6.10;;
57301;SDS011;43149;50.974;18.224;2023-10-13T21:35:14;10.60;;;6.40;;
57301;SDS011;43149;50.974;18.224;2023-10-13T21:45:19;3.70;;;3.40;;
57301;SDS011;43149;50.974;18.224;2023-10-13T21:55:06;5.30;;;4.80;;
57301;SDS011;43149;50.974;18.224;2023-10-13T22:05:13;9.50;;;5.90;;
57301;SDS011;43149;50.974;18.224;2023-10-13T22:14:57;6.30;;;5.70;;
57301;SDS011;43149;50.974;18.224;2023-10-13T22:24:45;7.80;;;6.80;;
57301;SDS011;43149;50.974;18.224;2023-10-13T22:41:59;8.30;;;5.50;;
57301;SDS011;43149;50.974;18.224;2023-10-13T22:51:50;6.30;;;5.70;;
57301;SDS011;43149;50.974;18.224;2023-10-13T23:01:38;16.60;;;7.50;;
57301;SDS011;43149;50.974;18.224;2023-10-13T23:11:53;10.50;;;6.50;;
57301;SDS011;43149;50.974;18.224;2023-10-13T23:21:44;7.10;;;6.40;;
57301;SDS011;43149;50.974;18.224;2023-10-13T23:31:30;4.10;;;3.80;;
57301;SDS011;43149;50.974;18.224;2023-10-13T23:41:25;17.40;;;6.40;;
57301;SDS011;43149;50.974;18.224;2023-10-13T23:51:19;5.70;;;3.80;;
